sensor_id;sensor_type;location;lat;lon;timestamp;P1;durP1;ratioP1;P2;durP2;ratioP2
38302;SDS011;24103;42.454;27.400;2022-12-29T00:01:37;0.43;;;0.43;;
38302;SDS011;24103;42.454;27.400;2022-12-29T00:04:03;0.50;;;0.50;;
38302;SDS011;24103;42.454;27.400;2022-12-29T00:06:29;0.40;;;0.40;;
38302;SDS011;24103;42.454;27.400;2022-12-29T00:08:55;0.57;;;0.57;;
38302;SDS011;24103;42.454;27.400;2022-12-29T00:11:22;0.50;;;0.50;;
38302;SDS011;24103;42.454;27.400;2022-12-29T00:13:49;0.50;;;0.50;;
38302;SDS011;24103;42.454;27.400;2022-12-29T00:16:33;0.60;;;0.60;;
38302;SDS011;24103;42.454;27.400;2022-12-29T00:19:00;0.60;;;0.60;;
38302;SDS011;24103;42.454;27.400;2022-12-29T00:21:26;0.60;;;0.60;;
38302;SDS011;24103;42.454;27.400;2022-12-29T00:24:20;0.60;;;0.60;;
38302;SDS011;24103;42.454;27.400;2022-12-29T00:26:47;0.70;;;0.70;;
38302;SDS011;24103;42.454;27.400;2022-12-29T00:29:36;0.60;;;0.60;;
38302;SDS011;24103;42.454;27.400;2022-12-29T00:32:20;0.50;;;0.50;;
38302;SDS011;24103;42.454;27.400;2022-12-29T00:35:04;0.60;;;0.60;;
38302;SDS011;24103;42.454;27.400;2022-12-29T00:37:45;0.60;;;0.60;;
38302;SDS011;24103;42.454;27.400;2022-12-29T00:40:31;0.60;;;0.60;;
38302;SDS011;24103;42.454;27.400;2022-12-29T00:43:15;1.63;;;1.50;;
38302;SDS011;24103;42.454;27.400;2022-12-29T00:45:59;0.93;;;0.93;;
38302;SDS011;24103;42.454;27.400;2022-12-29T00:48:24;1.30;;;1.20;;
38302;SDS011;24103;42.454;27.400;2022-12-29T00:51:08;1.00;;;1.00;;
38302;SDS011;24103;42.454;27.400;2022-12-29T00:53:34;2.17;;;1.98;;
38302;SDS011;24103;42.454;27.400;2022-12-29T00:56:00;3.63;;;2.67;;
38302;SDS011;24103;42.454;27.400;2022-12-29T00:58:28;3.10;;;2.53;;
38302;SDS011;24103;42.454;27.400;2022-12-29T01:01:05;1.98;;;1.60;;
38302;SDS011;24103;42.454;27.400;2022-12-29T01:03:32;1.20;;;1.10;;
38302;SDS011;24103;42.454;27.400;2022-12-29T01:06:00;0.70;;;0.70;;
38302;SDS011;24103;42.454;27.400;2022-12-29T01:08:29;0.60;;;0.60;;
38302;SDS011;24103;42.454;27.400;2022-12-29T01:11:03;0.60;;;0.60;;
38302;SDS011;24103;42.454;27.400;2022-12-29T01:13:30;0.50;;;0.50;;
38302;SDS011;24103;42.454;27.400;2022-12-29T01:15:56;0.60;;;0.60;;
38302;SDS011;24103;42.454;27.400;2022-12-29T01:18:22;0.50;;;0.50;;
38302;SDS011;24103;42.454;27.400;2022-12-29T01:20:49;0.60;;;0.60;;
38302;SDS011;24103;42.454;27.400;2022-12-29T01:23:14;0.60;;;0.60;;
38302;SDS011;24103;42.454;27.400;2022-12-29T01:25:40;0.50;;;0.50;;
38302;SDS011;24103;42.454;27.400;2022-12-29T01:28:06;0.50;;;0.50;;
38302;SDS011;24103;42.454;27.400;2022-12-29T01:30:33;0.60;;;0.60;;
38302;SDS011;24103;42.454;27.400;2022-12-29T01:33:00;0.60;;;0.60;;
38302;SDS011;24103;42.454;27.400;2022-12-29T01:35:26;0.50;;;0.50;;
38302;SDS011;24103;42.454;27.400;2022-12-29T01:37:51;0.60;;;0.60;;
38302;SDS011;24103;42.454;27.400;2022-12-29T01:40:17;0.60;;;0.60;;
38302;SDS011;24103;42.454;27.400;2022-12-29T01:42:43;0.60;;;0.60;;
38302;SDS011;24103;42.454;27.400;2022-12-29T01:45:09;0.60;;;0.60;;
38302;SDS011;24103;42.454;27.400;2022-12-29T01:47:49;0.60;;;0.60;;
38302;SDS011;24103;42.454;27.400;2022-12-29T01:50:32;0.60;;;0.60;;
38302;SDS011;24103;42.454;27.400;2022-12-29T01:55:39;0.60;;;0.60;;
38302;SDS011;24103;42.454;27.400;2022-12-29T01:58:08;0.60;;;0.60;;
38302;SDS011;24103;42.454;27.400;2022-12-29T02:00:35;0.70;;;0.70;;
38302;SDS011;24103;42.454;27.400;2022-12-29T02:03:02;0.70;;;0.70;;
38302;SDS011;24103;42.454;27.400;2022-12-29T02:06:32;0.80;;;0.80;;
38302;SDS011;24103;42.454;27.400;2022-12-29T02:08:35;0.77;;;0.77;;
38302;SDS011;24103;42.454;27.400;2022-12-29T02:11:03;0.70;;;0.70;;
38302;SDS011;24103;42.454;27.400;2022-12-29T02:13:28;1.10;;;1.10;;
38302;SDS011;24103;42.454;27.400;2022-12-29T02:21:29;0.60;;;0.60;;
38302;SDS011;24103;42.454;27.400;2022-12-29T02:29:26;0.73;;;0.73;;
38302;SDS011;24103;42.454;27.400;2022-12-29T02:40:37;0.60;;;0.60;;
38302;SDS011;24103;42.454;27.400;2022-12-29T02:43:11;0.60;;;0.60;;
38302;SDS011;24103;42.454;27.400;2022-12-29T02:45:58;0.60;;;0.60;;
38302;SDS011;24103;42.454;27.400;2022-12-29T02:53:28;0.60;;;0.60;;
38302;SDS011;24103;42.454;27.400;2022-12-29T02:56:15;0.60;;;0.60;;
38302;SDS011;24103;42.454;27.400;2022-12-29T02:58:41;0.60;;;0.60;;
38302;SDS011;24103;42.454;27.400;2022-12-29T03:01:11;0.60;;;0.60;;
38302;SDS011;24103;42.454;27.400;2022-12-29T03:04:03;0.70;;;0.70;;
38302;SDS011;24103;42.454;27.400;2022-12-29T03:10:12;0.70;;;0.70;;
38302;SDS011;24103;42.454;27.400;2022-12-29T03:24:40;0.70;;;0.70;;
38302;SDS011;24103;42.454;27.400;2022-12-29T03:27:11;0.70;;;0.70;;
38302;SDS011;24103;42.454;27.400;2022-12-29T03:29:48;0.80;;;0.80;;
38302;SDS011;24103;42.454;27.400;2022-12-29T03:32:24;0.70;;;0.70;;
38302;SDS011;24103;42.454;27.400;2022-12-29T03:34:53;0.63;;;0.63;;
38302;SDS011;24103;42.454;27.400;2022-12-29T03:37:28;0.60;;;0.60;;
38302;SDS011;24103;42.454;27.400;2022-12-29T03:40:01;0.70;;;0.70;;
38302;SDS011;24103;42.454;27.400;2022-12-29T03:42:27;0.65;;;0.65;;
38302;SDS011;24103;42.454;27.400;2022-12-29T03:44:56;0.70;;;0.70;;
38302;SDS011;24103;42.454;27.400;2022-12-29T03:47:22;0.70;;;0.70;;
38302;SDS011;24103;42.454;27.400;2022-12-29T03:49:49;0.65;;;0.65;;
38302;SDS011;24103;42.454;27.400;2022-12-29T03:52:15;0.70;;;0.70;;
38302;SDS011;24103;42.454;27.400;2022-12-29T03:54:41;0.70;;;0.70;;
38302;SDS011;24103;42.454;27.400;2022-12-29T03:57:07;0.70;;;0.70;;
38302;SDS011;24103;42.454;27.400;2022-12-29T03:59:33;0.77;;;0.77;;
38302;SDS011;24103;42.454;27.400;2022-12-29T04:01:59;0.70;;;0.70;;
38302;SDS011;24103;42.454;27.400;2022-12-29T04:04:24;0.70;;;0.70;;
38302;SDS011;24103;42.454;27.400;2022-12-29T04:06:50;0.70;;;0.70;;
38302;SDS011;24103;42.454;27.400;2022-12-29T04:09:15;0.70;;;0.70;;
38302;SDS011;24103;42.454;27.400;2022-12-29T04:11:41;0.80;;;0.80;;
38302;SDS011;24103;42.454;27.400;2022-12-29T04:14:06;0.70;;;0.70;;
38302;SDS011;24103;42.454;27.400;2022-12-29T04:16:32;0.70;;;0.70;;
38302;SDS011;24103;42.454;27.400;2022-12-29T04:19:00;0.70;;;0.70;;
38302;SDS011;24103;42.454;27.400;2022-12-29T04:21:26;0.70;;;0.70;;
38302;SDS011;24103;42.454;27.400;2022-12-29T04:23:52;0.70;;;0.70;;
38302;SDS011;24103;42.454;27.400;2022-12-29T04:26:17;0.68;;;0.68;;
38302;SDS011;24103;42.454;27.400;2022-12-29T04:28:43;0.70;;;0.70;;
38302;SDS011;24103;42.454;27.400;2022-12-29T04:31:08;0.70;;;0.70;;
38302;SDS011;24103;42.454;27.400;2022-12-29T04:33:34;0.70;;;0.70;;
38302;SDS011;24103;42.454;27.400;2022-12-29T04:35:59;0.70;;;0.70;;
38302;SDS011;24103;42.454;27.400;2022-12-29T04:38:25;0.70;;;0.70;;
38302;SDS011;24103;42.454;27.400;2022-12-29T04:40:51;0.70;;;0.70;;
38302;SDS011;24103;42.454;27.400;2022-12-29T04:43:16;0.70;;;0.70;;
38302;SDS011;24103;42.454;27.400;2022-12-29T04:45:44;0.80;;;0.80;;
38302;SDS011;24103;42.454;27.400;2022-12-29T04:48:10;0.70;;;0.70;;
38302;SDS011;24103;42.454;27.400;2022-12-29T04:50:36;0.70;;;0.70;;
38302;SDS011;24103;42.454;27.400;2022-12-29T04:53:01;0.70;;;0.70;;
38302;SDS011;24103;42.454;27.400;2022-12-29T04:55:27;0.70;;;0.70;;
38302;SDS011;24103;42.454;27.400;2022-12-29T04:57:52;0.80;;;0.80;;
38302;SDS011;24103;42.454;27.400;2022-12-29T05:00:18;0.80;;;0.80;;
38302;SDS011;24103;42.454;27.400;2022-12-29T05:02:43;0.70;;;0.70;;
38302;SDS011;24103;42.454;27.400;2022-12-29T05:05:09;0.70;;;0.70;;
38302;SDS011;24103;42.454;27.400;2022-12-29T05:07:35;0.70;;;0.70;;
38302;SDS011;24103;42.454;27.400;2022-12-29T05:10:02;0.70;;;0.70;;
38302;SDS011;24103;42.454;27.400;2022-12-29T05:12:31;0.70;;;0.70;;
38302;SDS011;24103;42.454;27.400;2022-12-29T05:14:57;0.70;;;0.70;;
38302;SDS011;24103;42.454;27.400;2022-12-29T05:17:23;0.70;;;0.70;;
38302;SDS011;24103;42.454;27.400;2022-12-29T05:19:48;0.70;;;0.70;;
38302;SDS011;24103;42.454;27.400;2022-12-29T05:22:14;0.70;;;0.70;;
38302;SDS011;24103;42.454;27.400;2022-12-29T05:24:39;0.70;;;0.70;;
38302;SDS011;24103;42.454;27.400;2022-12-29T05:27:05;0.80;;;0.80;;
38302;SDS011;24103;42.454;27.400;2022-12-29T05:29:30;0.70;;;0.70;;
38302;SDS011;24103;42.454;27.400;2022-12-29T05:31:56;0.90;;;0.90;;
38302;SDS011;24103;42.454;27.400;2022-12-29T05:34:21;0.70;;;0.70;;
38302;SDS011;24103;42.454;27.400;2022-12-29T05:36:47;0.70;;;0.70;;
38302;SDS011;24103;42.454;27.400;2022-12-29T05:39:12;0.70;;;0.70;;
38302;SDS011;24103;42.454;27.400;2022-12-29T05:41:38;0.80;;;0.80;;
38302;SDS011;24103;42.454;27.400;2022-12-29T05:44:03;0.80;;;0.80;;
38302;SDS011;24103;42.454;27.400;2022-12-29T05:46:29;0.70;;;0.70;;
38302;SDS011;24103;42.454;27.400;2022-12-29T05:48:54;0.70;;;0.70;;
38302;SDS011;24103;42.454;27.400;2022-12-29T05:51:20;0.70;;;0.70;;
38302;SDS011;24103;42.454;27.400;2022-12-29T05:53:45;0.70;;;0.70;;
38302;SDS011;24103;42.454;27.400;2022-12-29T05:56:11;0.60;;;0.60;;
38302;SDS011;24103;42.454;27.400;2022-12-29T05:58:36;0.70;;;0.70;;
38302;SDS011;24103;42.454;27.400;2022-12-29T06:01:02;0.70;;;0.70;;
38302;SDS011;24103;42.454;27.400;2022-12-29T06:03:27;0.70;;;0.70;;
38302;SDS011;24103;42.454;27.400;2022-12-29T06:05:53;0.70;;;0.70;;
38302;SDS011;24103;42.454;27.400;2022-12-29T06:08:18;0.70;;;0.70;;
38302;SDS011;24103;42.454;27.400;2022-12-29T06:10:44;0.70;;;0.70;;
38302;SDS011;24103;42.454;27.400;2022-12-29T06:13:09;0.60;;;0.60;;
38302;SDS011;24103;42.454;27.400;2022-12-29T06:15:35;0.70;;;0.70;;
38302;SDS011;24103;42.454;27.400;2022-12-29T06:18:01;0.65;;;0.65;;
38302;SDS011;24103;42.454;27.400;2022-12-29T06:20:26;0.60;;;0.60;;
38302;SDS011;24103;42.454;27.400;2022-12-29T06:22:52;0.60;;;0.60;;
38302;SDS011;24103;42.454;27.400;2022-12-29T06:25:17;0.60;;;0.60;;
38302;SDS011;24103;42.454;27.400;2022-12-29T06:27:43;0.60;;;0.60;;
38302;SDS011;24103;42.454;27.400;2022-12-29T06:30:09;0.50;;;0.50;;
38302;SDS011;24103;42.454;27.400;2022-12-29T06:32:36;0.50;;;0.50;;
38302;SDS011;24103;42.454;27.400;2022-12-29T06:35:02;0.50;;;0.50;;
38302;SDS011;24103;42.454;27.400;2022-12-29T06:37:29;0.45;;;0.45;;
38302;SDS011;24103;42.454;27.400;2022-12-29T06:39:55;0.40;;;0.40;;
38302;SDS011;24103;42.454;27.400;2022-12-29T06:42:21;0.30;;;0.30;;
38302;SDS011;24103;42.454;27.400;2022-12-29T06:44:46;0.30;;;0.30;;
38302;SDS011;24103;42.454;27.400;2022-12-29T06:47:12;0.30;;;0.30;;
38302;SDS011;24103;42.454;27.400;2022-12-29T06:49:37;0.30;;;0.30;;
38302;SDS011;24103;42.454;27.400;2022-12-29T06:52:03;0.22;;;0.22;;
38302;SDS011;24103;42.454;27.400;2022-12-29T06:54:32;0.20;;;0.20;;
38302;SDS011;24103;42.454;27.400;2022-12-29T06:56:58;0.22;;;0.22;;
38302;SDS011;24103;42.454;27.400;2022-12-29T06:59:25;0.20;;;0.20;;
38302;SDS011;24103;42.454;27.400;2022-12-29T07:01:50;0.20;;;0.20;;
38302;SDS011;24103;42.454;27.400;2022-12-29T07:04:16;0.13;;;0.13;;
38302;SDS011;24103;42.454;27.400;2022-12-29T07:06:41;0.20;;;0.20;;
38302;SDS011;24103;42.454;27.400;2022-12-29T07:09:07;0.30;;;0.30;;
38302;SDS011;24103;42.454;27.400;2022-12-29T07:11:33;0.20;;;0.20;;
38302;SDS011;24103;42.454;27.400;2022-12-29T07:13:59;0.28;;;0.28;;
38302;SDS011;24103;42.454;27.400;2022-12-29T07:16:24;0.38;;;0.38;;
38302;SDS011;24103;42.454;27.400;2022-12-29T07:18:50;0.30;;;0.30;;
38302;SDS011;24103;42.454;27.400;2022-12-29T07:21:16;0.20;;;0.20;;
38302;SDS011;24103;42.454;27.400;2022-12-29T07:23:42;0.25;;;0.25;;
38302;SDS011;24103;42.454;27.400;2022-12-29T07:26:08;0.30;;;0.30;;
38302;SDS011;24103;42.454;27.400;2022-12-29T07:28:36;0.30;;;0.30;;
38302;SDS011;24103;42.454;27.400;2022-12-29T07:31:03;0.30;;;0.30;;
38302;SDS011;24103;42.454;27.400;2022-12-29T07:33:29;0.30;;;0.30;;
38302;SDS011;24103;42.454;27.400;2022-12-29T07:35:55;0.30;;;0.30;;
38302;SDS011;24103;42.454;27.400;2022-12-29T07:38:21;0.30;;;0.30;;
38302;SDS011;24103;42.454;27.400;2022-12-29T07:40:46;0.20;;;0.20;;
38302;SDS011;24103;42.454;27.400;2022-12-29T07:43:12;0.30;;;0.30;;
38302;SDS011;24103;42.454;27.400;2022-12-29T07:45:37;0.30;;;0.30;;
38302;SDS011;24103;42.454;27.400;2022-12-29T07:48:03;0.30;;;0.30;;
38302;SDS011;24103;42.454;27.400;2022-12-29T07:50:32;0.30;;;0.30;;
38302;SDS011;24103;42.454;27.400;2022-12-29T07:52:58;0.30;;;0.30;;
38302;SDS011;24103;42.454;27.400;2022-12-29T07:55:24;0.30;;;0.30;;
38302;SDS011;24103;42.454;27.400;2022-12-29T07:57:49;0.40;;;0.40;;
38302;SDS011;24103;42.454;27.400;2022-12-29T08:00:18;0.30;;;0.30;;
38302;SDS011;24103;42.454;27.400;2022-12-29T08:02:43;0.30;;;0.30;;
38302;SDS011;24103;42.454;27.400;2022-12-29T08:05:09;0.30;;;0.30;;
38302;SDS011;24103;42.454;27.400;2022-12-29T08:07:34;0.30;;;0.30;;
38302;SDS011;24103;42.454;27.400;2022-12-29T08:10:00;0.20;;;0.20;;
38302;SDS011;24103;42.454;27.400;2022-12-29T08:12:26;0.30;;;0.30;;
38302;SDS011;24103;42.454;27.400;2022-12-29T08:14:52;0.25;;;0.25;;
38302;SDS011;24103;42.454;27.400;2022-12-29T08:17:17;0.22;;;0.22;;
38302;SDS011;24103;42.454;27.400;2022-12-29T08:19:43;0.20;;;0.20;;
38302;SDS011;24103;42.454;27.400;2022-12-29T08:22:08;0.20;;;0.20;;
38302;SDS011;24103;42.454;27.400;2022-12-29T08:24:34;0.20;;;0.20;;
38302;SDS011;24103;42.454;27.400;2022-12-29T08:27:00;0.22;;;0.22;;
38302;SDS011;24103;42.454;27.400;2022-12-29T08:29:26;0.30;;;0.30;;
38302;SDS011;24103;42.454;27.400;2022-12-29T08:31:52;0.20;;;0.20;;
38302;SDS011;24103;42.454;27.400;2022-12-29T08:34:18;0.20;;;0.20;;
38302;SDS011;24103;42.454;27.400;2022-12-29T08:36:43;0.20;;;0.20;;
38302;SDS011;24103;42.454;27.400;2022-12-29T08:39:08;0.20;;;0.20;;
38302;SDS011;24103;42.454;27.400;2022-12-29T08:41:34;0.20;;;0.20;;
38302;SDS011;24103;42.454;27.400;2022-12-29T08:43:59;0.20;;;0.20;;
38302;SDS011;24103;42.454;27.400;2022-12-29T08:46:25;0.20;;;0.20;;
38302;SDS011;24103;42.454;27.400;2022-12-29T08:48:50;0.20;;;0.20;;
38302;SDS011;24103;42.454;27.400;2022-12-29T08:51:16;0.20;;;0.20;;
38302;SDS011;24103;42.454;27.400;2022-12-29T08:53:42;0.20;;;0.20;;
38302;SDS011;24103;42.454;27.400;2022-12-29T08:56:08;0.10;;;0.10;;
38302;SDS011;24103;42.454;27.400;2022-12-29T08:58:35;0.10;;;0.10;;
38302;SDS011;24103;42.454;27.400;2022-12-29T09:01:00;0.17;;;0.17;;
38302;SDS011;24103;42.454;27.400;2022-12-29T09:03:26;0.20;;;0.20;;
38302;SDS011;24103;42.454;27.400;2022-12-29T09:05:52;0.20;;;0.20;;
38302;SDS011;24103;42.454;27.400;2022-12-29T09:08:19;0.20;;;0.20;;
38302;SDS011;24103;42.454;27.400;2022-12-29T09:10:45;0.10;;;0.10;;
38302;SDS011;24103;42.454;27.400;2022-12-29T09:13:11;0.20;;;0.20;;
38302;SDS011;24103;42.454;27.400;2022-12-29T09:15:39;0.13;;;0.13;;
38302;SDS011;24103;42.454;27.400;2022-12-29T09:18:05;0.13;;;0.13;;
38302;SDS011;24103;42.454;27.400;2022-12-29T09:20:32;0.20;;;0.20;;
38302;SDS011;24103;42.454;27.400;2022-12-29T09:22:58;0.22;;;0.22;;
38302;SDS011;24103;42.454;27.400;2022-12-29T09:25:24;0.30;;;0.30;;
38302;SDS011;24103;42.454;27.400;2022-12-29T09:27:50;0.10;;;0.10;;
38302;SDS011;24103;42.454;27.400;2022-12-29T09:30:17;0.10;;;0.10;;
38302;SDS011;24103;42.454;27.400;2022-12-29T09:32:44;0.15;;;0.15;;
38302;SDS011;24103;42.454;27.400;2022-12-29T09:35:09;0.20;;;0.20;;
38302;SDS011;24103;42.454;27.400;2022-12-29T09:37:35;0.20;;;0.20;;
38302;SDS011;24103;42.454;27.400;2022-12-29T09:40:01;0.15;;;0.15;;
38302;SDS011;24103;42.454;27.400;2022-12-29T09:42:58;0.10;;;0.10;;
38302;SDS011;24103;42.454;27.400;2022-12-29T09:45:45;0.10;;;0.10;;
38302;SDS011;24103;42.454;27.400;2022-12-29T09:48:19;0.10;;;0.10;;
38302;SDS011;24103;42.454;27.400;2022-12-29T09:50:49;0.10;;;0.10;;
38302;SDS011;24103;42.454;27.400;2022-12-29T09:55:57;0.20;;;0.20;;
38302;SDS011;24103;42.454;27.400;2022-12-29T10:01:23;0.17;;;0.17;;
38302;SDS011;24103;42.454;27.400;2022-12-29T10:03:54;0.20;;;0.20;;
38302;SDS011;24103;42.454;27.400;2022-12-29T10:06:26;0.10;;;0.10;;
38302;SDS011;24103;42.454;27.400;2022-12-29T10:09:12;0.10;;;0.10;;
38302;SDS011;24103;42.454;27.400;2022-12-29T10:11:55;0.10;;;0.10;;
38302;SDS011;24103;42.454;27.400;2022-12-29T10:25:22;0.20;;;0.20;;
38302;SDS011;24103;42.454;27.400;2022-12-29T10:27:50;0.10;;;0.10;;
38302;SDS011;24103;42.454;27.400;2022-12-29T10:30:18;0.10;;;0.10;;
38302;SDS011;24103;42.454;27.400;2022-12-29T10:32:52;0.10;;;0.10;;
38302;SDS011;24103;42.454;27.400;2022-12-29T10:35:22;0.10;;;0.10;;
38302;SDS011;24103;42.454;27.400;2022-12-29T10:38:10;0.17;;;0.17;;
38302;SDS011;24103;42.454;27.400;2022-12-29T10:43:30;0.20;;;0.20;;
38302;SDS011;24103;42.454;27.400;2022-12-29T10:46:05;0.10;;;0.10;;
38302;SDS011;24103;42.454;27.400;2022-12-29T10:48:34;0.10;;;0.10;;
38302;SDS011;24103;42.454;27.400;2022-12-29T10:51:09;0.20;;;0.20;;
38302;SDS011;24103;42.454;27.400;2022-12-29T10:56:27;0.10;;;0.10;;
38302;SDS011;24103;42.454;27.400;2022-12-29T10:58:59;0.20;;;0.20;;
38302;SDS011;24103;42.454;27.400;2022-12-29T11:04:03;0.10;;;0.10;;
38302;SDS011;24103;42.454;27.400;2022-12-29T11:06:40;0.10;;;0.10;;
38302;SDS011;24103;42.454;27.400;2022-12-29T11:09:09;0.20;;;0.20;;
38302;SDS011;24103;42.454;27.400;2022-12-29T11:11:40;0.15;;;0.15;;
38302;SDS011;24103;42.454;27.400;2022-12-29T11:14:11;0.10;;;0.10;;
38302;SDS011;24103;42.454;27.400;2022-12-29T11:16:43;0.10;;;0.10;;
38302;SDS011;24103;42.454;27.400;2022-12-29T11:19:22;0.10;;;0.10;;
38302;SDS011;24103;42.454;27.400;2022-12-29T11:21:49;0.20;;;0.20;;
38302;SDS011;24103;42.454;27.400;2022-12-29T11:27:08;0.10;;;0.10;;
38302;SDS011;24103;42.454;27.400;2022-12-29T11:29:40;0.10;;;0.10;;
38302;SDS011;24103;42.454;27.400;2022-12-29T11:32:23;0.10;;;0.10;;
38302;SDS011;24103;42.454;27.400;2022-12-29T11:34:49;0.10;;;0.10;;
38302;SDS011;24103;42.454;27.400;2022-12-29T11:37:16;0.20;;;0.20;;
38302;SDS011;24103;42.454;27.400;2022-12-29T11:42:23;0.10;;;0.10;;
38302;SDS011;24103;42.454;27.400;2022-12-29T11:44:59;0.17;;;0.17;;
38302;SDS011;24103;42.454;27.400;2022-12-29T11:47:31;0.10;;;0.10;;
38302;SDS011;24103;42.454;27.400;2022-12-29T11:50:03;0.10;;;0.10;;
38302;SDS011;24103;42.454;27.400;2022-12-29T11:52:32;0.10;;;0.10;;
38302;SDS011;24103;42.454;27.400;2022-12-29T11:55:04;0.10;;;0.10;;
38302;SDS011;24103;42.454;27.400;2022-12-29T11:57:32;0.10;;;0.10;;
38302;SDS011;24103;42.454;27.400;2022-12-29T12:00:00;0.10;;;0.10;;
38302;SDS011;24103;42.454;27.400;2022-12-29T12:07:48;0.17;;;0.17;;
38302;SDS011;24103;42.454;27.400;2022-12-29T12:10:21;0.10;;;0.10;;
38302;SDS011;24103;42.454;27.400;2022-12-29T12:15:52;0.10;;;0.10;;
38302;SDS011;24103;42.454;27.400;2022-12-29T12:21:24;0.10;;;0.10;;
38302;SDS011;24103;42.454;27.400;2022-12-29T12:26:20;0.10;;;0.10;;
38302;SDS011;24103;42.454;27.400;2022-12-29T12:29:01;0.10;;;0.10;;
38302;SDS011;24103;42.454;27.400;2022-12-29T12:34:32;0.10;;;0.10;;
38302;SDS011;24103;42.454;27.400;2022-12-29T12:39:56;0.15;;;0.15;;
38302;SDS011;24103;42.454;27.400;2022-12-29T12:48:35;0.10;;;0.10;;
38302;SDS011;24103;42.454;27.400;2022-12-29T12:59:21;0.10;;;0.10;;
38302;SDS011;24103;42.454;27.400;2022-12-29T13:02:17;0.20;;;0.20;;
38302;SDS011;24103;42.454;27.400;2022-12-29T13:07:39;0.20;;;0.20;;
38302;SDS011;24103;42.454;27.400;2022-12-29T13:16:01;0.10;;;0.10;;
38302;SDS011;24103;42.454;27.400;2022-12-29T13:24:23;0.20;;;0.20;;
38302;SDS011;24103;42.454;27.400;2022-12-29T13:32:21;0.10;;;0.10;;
38302;SDS011;24103;42.454;27.400;2022-12-29T13:37:27;0.20;;;0.20;;
38302;SDS011;24103;42.454;27.400;2022-12-29T13:40:02;0.10;;;0.10;;
38302;SDS011;24103;42.454;27.400;2022-12-29T13:42:36;0.20;;;0.20;;
38302;SDS011;24103;42.454;27.400;2022-12-29T13:45:03;0.10;;;0.10;;
38302;SDS011;24103;42.454;27.400;2022-12-29T13:47:46;0.20;;;0.20;;
38302;SDS011;24103;42.454;27.400;2022-12-29T13:50:19;0.20;;;0.20;;
38302;SDS011;24103;42.454;27.400;2022-12-29T13:58:34;0.20;;;0.20;;
38302;SDS011;24103;42.454;27.400;2022-12-29T14:01:18;0.10;;;0.10;;
38302;SDS011;24103;42.454;27.400;2022-12-29T14:03:54;0.20;;;0.20;;
38302;SDS011;24103;42.454;27.400;2022-12-29T14:06:31;0.10;;;0.10;;
38302;SDS011;24103;42.454;27.400;2022-12-29T14:09:01;0.20;;;0.20;;
38302;SDS011;24103;42.454;27.400;2022-12-29T14:11:46;0.20;;;0.20;;
38302;SDS011;24103;42.454;27.400;2022-12-29T14:16:48;0.20;;;0.20;;
38302;SDS011;24103;42.454;27.400;2022-12-29T14:19:19;0.20;;;0.20;;
38302;SDS011;24103;42.454;27.400;2022-12-29T14:21:59;0.20;;;0.20;;
38302;SDS011;24103;42.454;27.400;2022-12-29T14:38:27;0.20;;;0.20;;
38302;SDS011;24103;42.454;27.400;2022-12-29T14:40:52;0.30;;;0.30;;
38302;SDS011;24103;42.454;27.400;2022-12-29T14:43:38;0.20;;;0.20;;
38302;SDS011;24103;42.454;27.400;2022-12-29T14:46:03;0.20;;;0.20;;
38302;SDS011;24103;42.454;27.400;2022-12-29T14:48:35;0.20;;;0.20;;
38302;SDS011;24103;42.454;27.400;2022-12-29T14:51:16;0.30;;;0.30;;
38302;SDS011;24103;42.454;27.400;2022-12-29T14:53:45;0.20;;;0.20;;
38302;SDS011;24103;42.454;27.400;2022-12-29T14:56:20;0.20;;;0.20;;
38302;SDS011;24103;42.454;27.400;2022-12-29T14:58:51;0.22;;;0.22;;
38302;SDS011;24103;42.454;27.400;2022-12-29T15:04:15;0.20;;;0.20;;
38302;SDS011;24103;42.454;27.400;2022-12-29T15:06:43;0.30;;;0.30;;
38302;SDS011;24103;42.454;27.400;2022-12-29T15:11:57;0.32;;;0.32;;
38302;SDS011;24103;42.454;27.400;2022-12-29T15:14:36;0.30;;;0.30;;
38302;SDS011;24103;42.454;27.400;2022-12-29T15:17:22;0.22;;;0.22;;
38302;SDS011;24103;42.454;27.400;2022-12-29T15:19:48;0.20;;;0.20;;
38302;SDS011;24103;42.454;27.400;2022-12-29T15:22:14;0.22;;;0.22;;
38302;SDS011;24103;42.454;27.400;2022-12-29T15:24:43;0.20;;;0.20;;
38302;SDS011;24103;42.454;27.400;2022-12-29T15:27:16;0.20;;;0.20;;
38302;SDS011;24103;42.454;27.400;2022-12-29T15:29:45;0.40;;;0.40;;
38302;SDS011;24103;42.454;27.400;2022-12-29T15:32:27;0.20;;;0.20;;
38302;SDS011;24103;42.454;27.400;2022-12-29T15:37:24;0.30;;;0.30;;
38302;SDS011;24103;42.454;27.400;2022-12-29T15:39:54;0.30;;;0.30;;
38302;SDS011;24103;42.454;27.400;2022-12-29T15:45:11;0.30;;;0.30;;
38302;SDS011;24103;42.454;27.400;2022-12-29T15:47:38;0.30;;;0.30;;
38302;SDS011;24103;42.454;27.400;2022-12-29T15:50:09;0.30;;;0.30;;
38302;SDS011;24103;42.454;27.400;2022-12-29T15:52:44;0.30;;;0.30;;
38302;SDS011;24103;42.454;27.400;2022-12-29T15:55:52;0.22;;;0.22;;
38302;SDS011;24103;42.454;27.400;2022-12-29T15:58:01;0.30;;;0.30;;
38302;SDS011;24103;42.454;27.400;2022-12-29T16:00:30;0.40;;;0.40;;
38302;SDS011;24103;42.454;27.400;2022-12-29T16:02:58;0.30;;;0.30;;
38302;SDS011;24103;42.454;27.400;2022-12-29T16:05:37;0.32;;;0.32;;
38302;SDS011;24103;42.454;27.400;2022-12-29T16:08:15;0.30;;;0.30;;
38302;SDS011;24103;42.454;27.400;2022-12-29T16:10:48;0.30;;;0.30;;
38302;SDS011;24103;42.454;27.400;2022-12-29T16:13:34;0.20;;;0.20;;
38302;SDS011;24103;42.454;27.400;2022-12-29T16:16:46;0.30;;;0.30;;
38302;SDS011;24103;42.454;27.400;2022-12-29T16:18:54;0.30;;;0.30;;
38302;SDS011;24103;42.454;27.400;2022-12-29T16:24:05;0.30;;;0.30;;
38302;SDS011;24103;42.454;27.400;2022-12-29T16:26:36;0.28;;;0.28;;
38302;SDS011;24103;42.454;27.400;2022-12-29T16:29:04;0.20;;;0.20;;
38302;SDS011;24103;42.454;27.400;2022-12-29T16:31:36;0.30;;;0.30;;
38302;SDS011;24103;42.454;27.400;2022-12-29T16:34:33;0.33;;;0.33;;
38302;SDS011;24103;42.454;27.400;2022-12-29T16:39:51;0.30;;;0.30;;
38302;SDS011;24103;42.454;27.400;2022-12-29T16:42:35;0.25;;;0.25;;
38302;SDS011;24103;42.454;27.400;2022-12-29T16:48:10;0.30;;;0.30;;
38302;SDS011;24103;42.454;27.400;2022-12-29T16:50:43;0.20;;;0.20;;
38302;SDS011;24103;42.454;27.400;2022-12-29T16:56:09;0.30;;;0.30;;
38302;SDS011;24103;42.454;27.400;2022-12-29T16:58:47;0.30;;;0.30;;
38302;SDS011;24103;42.454;27.400;2022-12-29T17:01:13;0.20;;;0.20;;
38302;SDS011;24103;42.454;27.400;2022-12-29T17:03:51;0.30;;;0.30;;
38302;SDS011;24103;42.454;27.400;2022-12-29T17:06:20;0.30;;;0.30;;
38302;SDS011;24103;42.454;27.400;2022-12-29T17:08:47;0.32;;;0.32;;
38302;SDS011;24103;42.454;27.400;2022-12-29T17:11:35;0.30;;;0.30;;
38302;SDS011;24103;42.454;27.400;2022-12-29T17:14:23;0.20;;;0.20;;
38302;SDS011;24103;42.454;27.400;2022-12-29T17:17:13;0.30;;;0.30;;
38302;SDS011;24103;42.454;27.400;2022-12-29T17:20:08;0.40;;;0.40;;
38302;SDS011;24103;42.454;27.400;2022-12-29T17:22:38;0.30;;;0.30;;
38302;SDS011;24103;42.454;27.400;2022-12-29T17:25:04;0.30;;;0.30;;
38302;SDS011;24103;42.454;27.400;2022-12-29T17:27:31;0.30;;;0.30;;
38302;SDS011;24103;42.454;27.400;2022-12-29T17:30:03;0.30;;;0.30;;
38302;SDS011;24103;42.454;27.400;2022-12-29T17:32:34;0.40;;;0.40;;
38302;SDS011;24103;42.454;27.400;2022-12-29T17:35:00;0.30;;;0.30;;
38302;SDS011;24103;42.454;27.400;2022-12-29T17:37:30;0.30;;;0.30;;
38302;SDS011;24103;42.454;27.400;2022-12-29T17:39:57;0.30;;;0.30;;
38302;SDS011;24103;42.454;27.400;2022-12-29T17:42:23;0.35;;;0.35;;
38302;SDS011;24103;42.454;27.400;2022-12-29T17:44:48;0.30;;;0.30;;